createdAt,value
2022-12-27T00:01:17.120Z,4.01
2022-12-27T00:03:44.417Z,4.02
2022-12-27T00:06:14.918Z,4.03
2022-12-27T00:08:42.319Z,4.01
2022-12-27T00:11:15.184Z,4.00
2022-12-27T00:13:42.629Z,3.98
2022-12-27T00:16:11.853Z,3.96
2022-12-27T00:18:40.003Z,3.99
2022-12-27T00:21:08.648Z,4.01
2022-12-27T00:23:38.051Z,4.05
2022-12-27T00:26:13.316Z,4.06
2022-12-27T00:28:40.557Z,4.04
2022-12-27T00:31:08.062Z,4.03
2022-12-27T00:33:36.825Z,4.02
2022-12-27T00:36:05.584Z,4.02
2022-12-27T00:38:33.285Z,4.04
2022-12-27T00:41:00.457Z,4.03
2022-12-27T00:43:27.884Z,4.00
2022-12-27T00:45:55.040Z,3.98
2022-12-27T00:48:22.115Z,4.00
2022-12-27T00:50:49.340Z,4.01
2022-12-27T00:53:16.485Z,4.00
2022-12-27T00:55:44.427Z,3.94
2022-12-27T00:58:11.774Z,3.88
2022-12-27T01:00:38.976Z,3.86
2022-12-27T01:03:06.192Z,3.84
2022-12-27T01:05:36.820Z,3.79
2022-12-27T01:08:04.935Z,3.73
2022-12-27T01:10:33.099Z,3.67
2022-12-27T01:13:01.219Z,3.61
2022-12-27T01:15:28.583Z,3.57
2022-12-27T01:17:55.789Z,3.50
2022-12-27T01:20:22.907Z,3.44
2022-12-27T01:22:50.071Z,3.38
2022-12-27T01:25:17.166Z,3.33
2022-12-27T01:27:44.281Z,3.26
2022-12-27T01:30:12.067Z,3.24
2022-12-27T01:32:39.070Z,3.22
2022-12-27T01:35:06.389Z,3.18
2022-12-27T01:37:33.475Z,3.17
2022-12-27T01:40:00.503Z,3.12
2022-12-27T01:42:46.541Z,3.08
2022-12-27T01:45:18.583Z,3.05
2022-12-27T01:47:51.161Z,3.00
2022-12-27T01:50:24.489Z,2.97
2022-12-27T01:53:14.145Z,2.92
2022-12-27T01:55:51.413Z,2.87
2022-12-27T01:58:47.481Z,2.82
2022-12-27T02:01:24.102Z,2.72
2022-12-27T02:03:54.529Z,2.70
2022-12-27T02:06:22.434Z,2.68
2022-12-27T02:08:57.739Z,2.68
2022-12-27T02:11:47.321Z,2.68
2022-12-27T02:14:16.699Z,2.65
2022-12-27T02:16:43.901Z,2.59
2022-12-27T02:19:22.450Z,2.50
2022-12-27T02:22:01.731Z,2.44
2022-12-27T02:24:39.471Z,2.37
2022-12-27T02:27:29.164Z,2.35
2022-12-27T02:30:05.185Z,2.30
2022-12-27T02:32:56.980Z,2.30
2022-12-27T02:35:31.946Z,2.24
2022-12-27T02:38:18.916Z,2.19
2022-12-27T02:41:05.251Z,2.14
2022-12-27T02:43:51.365Z,2.07
2022-12-27T02:46:40.406Z,2.01
2022-12-27T02:49:45.925Z,1.95
2022-12-27T02:52:53.933Z,1.90
2022-12-27T02:55:29.573Z,1.86
2022-12-27T02:58:26.111Z,1.80
2022-12-27T03:01:22.475Z,1.76
2022-12-27T03:04:04.003Z,1.75
2022-12-27T03:06:44.212Z,1.71
2022-12-27T03:09:49.721Z,1.62
2022-12-27T03:12:49.056Z,1.61
2022-12-27T03:15:57.133Z,1.55
2022-12-27T03:18:42.730Z,1.49
2022-12-27T03:21:28.583Z,1.43
2022-12-27T03:24:15.241Z,1.39
2022-12-27T03:26:47.625Z,1.37
2022-12-27T03:29:36.377Z,1.35
2022-12-27T03:32:25.925Z,1.28
2022-12-27T03:35:01.737Z,1.26
2022-12-27T03:37:50.499Z,1.22
2022-12-27T03:40:23.335Z,1.19
2022-12-27T03:43:12.956Z,1.19
2022-12-27T03:46:22.189Z,1.15
2022-12-27T03:49:02.389Z,1.09
2022-12-27T03:51:34.799Z,1.04
2022-12-27T03:54:07.562Z,1.01
2022-12-27T03:56:34.955Z,0.98
2022-12-27T03:59:02.631Z,0.96
2022-12-27T04:01:29.994Z,0.94
2022-12-27T04:03:57.238Z,0.92
2022-12-27T04:06:24.493Z,0.90
2022-12-27T04:09:10.312Z,0.87
2022-12-27T04:11:55.765Z,0.86
2022-12-27T04:14:41.215Z,0.86
2022-12-27T04:17:26.720Z,0.82
2022-12-27T04:20:12.170Z,0.80
2022-12-27T04:22:57.908Z,0.77
2022-12-27T04:25:43.277Z,0.76
2022-12-27T04:28:28.591Z,0.76
2022-12-27T04:31:14.405Z,0.74
2022-12-27T04:34:00.218Z,0.76
2022-12-27T04:36:27.261Z,0.71
2022-12-27T04:38:54.331Z,0.72
2022-12-27T04:41:40.013Z,0.74
2022-12-27T04:44:25.658Z,0.79
2022-12-27T04:47:11.371Z,0.82
2022-12-27T04:49:57.084Z,0.86
2022-12-27T04:52:43.267Z,0.83
2022-12-27T04:55:21.499Z,0.86
2022-12-27T04:57:48.849Z,0.87
2022-12-27T05:00:35.382Z,0.88
2022-12-27T05:03:04.564Z,0.87
2022-12-27T05:05:31.948Z,0.89
2022-12-27T05:08:18.796Z,0.89
2022-12-27T05:11:04.455Z,0.85
2022-12-27T05:13:50.460Z,0.84
2022-12-27T05:16:17.537Z,0.87
2022-12-27T05:18:44.668Z,0.86
2022-12-27T05:21:11.725Z,0.85
2022-12-27T05:24:03.349Z,0.88
2022-12-27T05:26:32.858Z,0.90
2022-12-27T05:29:00.751Z,0.88
2022-12-27T05:31:29.004Z,0.90
2022-12-27T05:33:56.839Z,0.90
2022-12-27T05:36:24.225Z,0.90
2022-12-27T05:38:51.832Z,0.90
2022-12-27T05:41:18.873Z,0.87
2022-12-27T05:43:45.999Z,0.84
2022-12-27T05:46:19.644Z,0.80
2022-12-27T05:48:47.596Z,0.81
2022-12-27T05:51:17.290Z,0.78
2022-12-27T05:53:44.947Z,0.77
2022-12-27T05:56:14.851Z,0.72
2022-12-27T05:58:42.761Z,0.71
2022-12-27T06:01:12.618Z,0.69
2022-12-27T06:03:39.953Z,0.66
2022-12-27T06:06:08.154Z,0.68
2022-12-27T06:08:35.929Z,0.72
2022-12-27T06:11:12.704Z,0.72
2022-12-27T06:13:40.908Z,0.71
2022-12-27T06:16:09.814Z,0.72
2022-12-27T06:18:38.268Z,0.71
2022-12-27T06:21:10.979Z,0.72
2022-12-27T06:23:39.903Z,0.71
2022-12-27T06:26:10.612Z,0.72
2022-12-27T06:28:38.195Z,0.71
2022-12-27T06:31:05.455Z,0.72
2022-12-27T06:33:32.690Z,0.73
2022-12-27T06:35:59.744Z,0.75
2022-12-27T06:38:26.881Z,0.76
2022-12-27T06:40:53.924Z,0.75
2022-12-27T06:43:20.965Z,0.80
2022-12-27T06:45:56.215Z,0.83
2022-12-27T06:48:23.759Z,0.84
2022-12-27T06:50:50.798Z,0.84
2022-12-27T06:53:17.833Z,0.87
2022-12-27T06:55:44.983Z,0.86
2022-12-27T06:58:13.469Z,0.88
2022-12-27T07:00:41.373Z,0.89
2022-12-27T07:03:08.503Z,0.91
2022-12-27T07:05:36.687Z,0.91
2022-12-27T07:08:04.045Z,0.91
2022-12-27T07:10:31.114Z,0.93
2022-12-27T07:12:58.553Z,0.98
2022-12-27T07:15:25.725Z,1.02
2022-12-27T07:17:52.763Z,1.07
2022-12-27T07:20:19.953Z,1.11
2022-12-27T07:22:47.013Z,1.18
2022-12-27T07:25:14.041Z,1.19
2022-12-27T07:27:41.081Z,1.21
2022-12-27T07:30:08.749Z,1.25
2022-12-27T07:32:35.881Z,1.26
2022-12-27T07:35:02.936Z,1.29
2022-12-27T07:37:30.003Z,1.30
2022-12-27T07:39:57.030Z,1.31
2022-12-27T07:42:24.057Z,1.33
2022-12-27T07:44:51.106Z,1.36
2022-12-27T07:47:18.152Z,1.39
2022-12-27T07:49:45.219Z,1.41
2022-12-27T07:52:12.252Z,1.47
2022-12-27T07:54:39.305Z,1.48
2022-12-27T07:57:06.390Z,1.54
2022-12-27T07:59:33.468Z,1.59
2022-12-27T08:02:06.933Z,1.61
2022-12-27T08:04:37.045Z,1.65
2022-12-27T08:07:18.496Z,1.68
2022-12-27T08:09:47.110Z,1.72
2022-12-27T08:12:14.506Z,1.74
2022-12-27T08:14:41.898Z,1.76
2022-12-27T08:17:18.266Z,1.77
2022-12-27T08:19:45.326Z,1.77
2022-12-27T08:22:12.441Z,1.79
2022-12-27T08:24:41.496Z,1.80
2022-12-27T08:27:08.698Z,1.81
2022-12-27T08:29:36.763Z,1.81
2022-12-27T08:32:04.632Z,1.85
2022-12-27T08:34:31.925Z,1.83
2022-12-27T08:36:58.980Z,1.83
2022-12-27T08:39:27.526Z,1.85
2022-12-27T08:41:54.720Z,1.87
2022-12-27T08:44:22.215Z,1.88
2022-12-27T08:46:49.398Z,1.93
2022-12-27T08:49:16.451Z,1.96
2022-12-27T08:51:43.467Z,2.01
2022-12-27T08:54:10.553Z,2.04
2022-12-27T08:56:38.036Z,2.10
2022-12-27T08:59:05.589Z,2.14
2022-12-27T09:01:32.763Z,2.16
2022-12-27T09:03:59.994Z,2.16
2022-12-27T09:06:27.916Z,2.18
2022-12-27T09:08:55.915Z,2.17
2022-12-27T09:11:28.089Z,2.14
2022-12-27T09:13:55.527Z,2.15
2022-12-27T09:16:24.835Z,2.16
2022-12-27T09:18:53.393Z,2.19
2022-12-27T09:21:21.844Z,2.20
2022-12-27T09:23:49.866Z,2.27
2022-12-27T09:26:19.453Z,2.35
2022-12-27T09:28:46.802Z,2.39
2022-12-27T09:31:14.683Z,2.43
2022-12-27T09:33:42.197Z,2.49
2022-12-27T09:36:14.661Z,2.51
2022-12-27T09:38:42.269Z,2.52
2022-12-27T09:44:53.102Z,2.50
2022-12-27T09:47:48.783Z,2.62
2022-12-27T09:50:21.015Z,2.73
2022-12-27T09:52:54.493Z,2.87
2022-12-27T09:55:29.067Z,3.00
2022-12-27T09:58:05.788Z,3.13
2022-12-27T10:00:35.526Z,3.19
2022-12-27T10:03:06.876Z,3.10
2022-12-27T10:05:35.501Z,3.04
2022-12-27T10:08:23.761Z,3.01
2022-12-27T10:11:09.535Z,2.98
2022-12-27T10:13:54.500Z,2.99
2022-12-27T10:16:32.597Z,2.99
2022-12-27T10:19:22.105Z,2.96
2022-12-27T10:22:09.628Z,3.14
2022-12-27T10:24:48.352Z,3.43
2022-12-27T10:27:19.488Z,3.57
2022-12-27T10:29:46.516Z,3.66
2022-12-27T10:32:16.039Z,3.79
2022-12-27T10:34:43.266Z,3.87
2022-12-27T10:37:15.379Z,3.87
2022-12-27T10:39:43.264Z,3.83
2022-12-27T10:42:42.803Z,3.72
2022-12-27T10:45:29.161Z,3.74
2022-12-27T10:47:58.641Z,3.72
2022-12-27T10:50:28.054Z,3.69
2022-12-27T10:52:57.637Z,3.67
2022-12-27T10:55:37.191Z,3.66
2022-12-27T10:58:20.719Z,3.69
2022-12-27T11:00:56.165Z,3.72
2022-12-27T11:03:23.495Z,3.73
2022-12-27T11:06:02.304Z,3.77
2022-12-27T11:08:30.039Z,3.80
2022-12-27T11:11:13.291Z,3.80
2022-12-27T11:13:40.698Z,3.83
2022-12-27T11:16:30.061Z,3.87
2022-12-27T11:18:58.902Z,3.90
2022-12-27T11:21:28.281Z,3.93
2022-12-27T11:24:01.109Z,3.94
2022-12-27T11:26:41.983Z,3.96
2022-12-27T11:29:17.770Z,3.93
2022-12-27T11:31:48.477Z,3.97
2022-12-27T11:34:43.822Z,4.07
2022-12-27T11:37:15.544Z,4.19
2022-12-27T11:39:47.604Z,4.32
2022-12-27T11:42:33.577Z,4.45
2022-12-27T11:45:12.456Z,4.48
2022-12-27T11:47:46.734Z,4.58
2022-12-27T11:50:19.463Z,4.66
2022-12-27T11:52:56.269Z,4.71
2022-12-27T11:55:45.399Z,4.69
2022-12-27T11:58:39.479Z,4.71
2022-12-27T12:01:29.182Z,4.65
2022-12-27T12:04:31.569Z,4.61
2022-12-27T12:07:13.780Z,4.51
2022-12-27T12:10:22.081Z,4.52
2022-12-27T12:13:14.911Z,4.43
2022-12-27T12:15:51.380Z,4.40
2022-12-27T12:18:33.343Z,4.41
2022-12-27T12:21:25.733Z,4.36
2022-12-27T12:24:26.887Z,4.31
2022-12-27T12:27:09.839Z,4.23
2022-12-27T12:30:08.940Z,4.21
2022-12-27T12:32:54.702Z,4.20
2022-12-27T12:35:32.941Z,4.15
2022-12-27T12:38:30.838Z,4.13
2022-12-27T12:41:21.217Z,4.12
2022-12-27T12:44:14.636Z,4.08
2022-12-27T12:47:05.133Z,4.05
2022-12-27T12:49:40.735Z,4.05
2022-12-27T12:52:28.627Z,4.06
2022-12-27T12:55:20.051Z,4.12
2022-12-27T12:58:24.801Z,4.17
2022-12-27T13:01:13.782Z,4.27
2022-12-27T13:04:07.168Z,4.37
2022-12-27T13:07:08.191Z,4.46
2022-12-27T13:09:58.189Z,4.55
2022-12-27T13:12:59.181Z,4.57
2022-12-27T13:15:54.875Z,4.60
2022-12-27T13:18:36.936Z,4.62
2022-12-27T13:21:31.547Z,4.61
2022-12-27T13:24:14.363Z,4.62
2022-12-27T13:26:58.549Z,4.59
2022-12-27T13:29:45.668Z,4.57
2022-12-27T13:32:27.763Z,4.55
2022-12-27T13:35:01.427Z,4.53
2022-12-27T13:37:40.147Z,4.55
2022-12-27T13:40:13.160Z,4.53
2022-12-27T13:42:48.845Z,4.52
2022-12-27T13:45:28.351Z,4.52
2022-12-27T13:48:09.061Z,4.49
2022-12-27T13:50:45.196Z,4.49
2022-12-27T13:53:50.099Z,4.48
2022-12-27T13:56:57.503Z,4.47
2022-12-27T13:59:51.044Z,4.47
2022-12-27T14:02:55.263Z,4.44
2022-12-27T14:05:25.183Z,4.42
2022-12-27T14:08:10.540Z,4.42
2022-12-27T14:10:50.132Z,4.41
2022-12-27T14:13:28.671Z,4.38
2022-12-27T14:16:20.306Z,4.32
2022-12-27T14:19:04.569Z,4.28
2022-12-27T14:21:43.806Z,4.26
2022-12-27T14:24:50.186Z,4.22
2022-12-27T14:27:38.585Z,4.14
2022-12-27T14:30:36.860Z,4.09
2022-12-27T14:33:17.080Z,4.09
2022-12-27T14:36:02.524Z,4.10
2022-12-27T14:39:11.350Z,4.04
2022-12-27T14:42:04.464Z,4.01
2022-12-27T14:45:09.384Z,3.99
2022-12-27T14:48:25.117Z,3.98
2022-12-27T14:51:41.523Z,4.01
2022-12-27T14:54:23.944Z,4.02
2022-12-27T14:57:21.965Z,4.02
2022-12-27T14:59:57.975Z,4.02
2022-12-27T15:02:51.409Z,3.99
2022-12-27T15:05:37.025Z,3.98
2022-12-27T15:08:41.071Z,3.97
2022-12-27T15:11:26.370Z,3.97
2022-12-27T15:13:59.090Z,3.97
2022-12-27T15:16:39.761Z,3.97
2022-12-27T15:19:47.642Z,3.97
2022-12-27T15:22:33.711Z,3.98
2022-12-27T15:25:19.312Z,3.98
2022-12-27T15:28:07.897Z,3.98
2022-12-27T15:30:46.390Z,3.98
2022-12-27T15:33:24.320Z,4.01
2022-12-27T15:36:00.188Z,4.00
2022-12-27T15:38:59.672Z,3.92
2022-12-27T15:42:05.168Z,3.90
2022-12-27T15:44:42.099Z,3.87
2022-12-27T15:47:14.618Z,3.86
2022-12-27T15:50:20.341Z,3.84
2022-12-27T15:53:12.483Z,3.83
2022-12-27T15:56:17.108Z,3.78
2022-12-27T15:58:44.624Z,3.73
2022-12-27T16:01:23.816Z,3.65
2022-12-27T16:03:53.768Z,3.66
2022-12-27T16:06:35.999Z,3.62
2022-12-27T16:09:24.540Z,3.56
2022-12-27T16:12:14.382Z,3.55
2022-12-27T16:14:42.969Z,3.51
2022-12-27T16:17:32.075Z,3.52
2022-12-27T16:20:13.665Z,3.49
2022-12-27T16:22:53.498Z,3.48
2022-12-27T16:25:24.136Z,3.44
2022-12-27T16:27:56.660Z,3.44
2022-12-27T16:30:45.494Z,3.40
2022-12-27T16:33:27.312Z,3.38
2022-12-27T16:36:15.657Z,3.31
2022-12-27T16:38:45.829Z,3.28
2022-12-27T16:41:31.314Z,3.26
2022-12-27T16:44:01.253Z,3.25
2022-12-27T16:46:57.084Z,3.26
2022-12-27T16:49:55.432Z,3.28
2022-12-27T16:52:48.168Z,3.29
2022-12-27T16:55:26.786Z,3.28
2022-12-27T16:58:33.281Z,3.28
2022-12-27T17:01:02.976Z,3.32
2022-12-27T17:03:36.029Z,3.33
2022-12-27T17:06:38.282Z,3.36
2022-12-27T17:09:08.004Z,3.39
2022-12-27T17:11:39.020Z,3.40
2022-12-27T17:14:11.719Z,3.41
2022-12-27T17:16:46.426Z,3.41
2022-12-27T17:19:37.483Z,3.43
2022-12-27T17:22:06.512Z,3.42
2022-12-27T17:24:33.672Z,3.46
2022-12-27T17:27:06.285Z,3.50
2022-12-27T17:29:55.254Z,3.52
2022-12-27T17:33:00.119Z,3.52
2022-12-27T17:35:31.706Z,3.55
2022-12-27T17:38:26.356Z,3.58
2022-12-27T17:41:07.971Z,3.59
2022-12-27T17:44:19.192Z,3.58
2022-12-27T17:46:55.315Z,3.60
2022-12-27T17:49:30.109Z,3.60
2022-12-27T17:52:22.520Z,3.61
2022-12-27T17:55:08.202Z,3.61
2022-12-27T17:57:53.693Z,3.62
2022-12-27T18:00:26.897Z,3.64
2022-12-27T18:02:55.438Z,3.64
2022-12-27T18:05:27.764Z,3.63
2022-12-27T18:08:06.568Z,3.65
2022-12-27T18:10:36.453Z,3.65
2022-12-27T18:13:06.037Z,3.64
2022-12-27T18:15:36.552Z,3.60
2022-12-27T18:18:06.319Z,3.63
2022-12-27T18:20:38.001Z,3.56
2022-12-27T18:23:06.059Z,3.56
2022-12-27T18:25:40.462Z,3.56
2022-12-27T18:28:18.358Z,3.54
2022-12-27T18:30:53.462Z,3.54
2022-12-27T18:33:27.596Z,3.52
2022-12-27T18:35:54.904Z,3.52
2022-12-27T18:38:28.188Z,3.52
2022-12-27T18:41:00.665Z,3.55
2022-12-27T18:43:27.704Z,3.51
2022-12-27T18:45:56.206Z,3.51
2022-12-27T18:48:24.735Z,3.47
2022-12-27T18:50:53.465Z,3.46
2022-12-27T18:53:46.914Z,3.41
2022-12-27T18:56:13.841Z,3.36
2022-12-27T18:58:41.611Z,3.31
2022-12-27T19:01:20.826Z,3.28
2022-12-27T19:04:13.812Z,3.28
2022-12-27T19:07:08.952Z,3.29
2022-12-27T19:09:40.832Z,3.30
2022-12-27T19:12:20.810Z,3.27
2022-12-27T19:14:48.113Z,3.23
2022-12-27T19:17:21.210Z,3.20
2022-12-27T19:19:50.638Z,3.20
2022-12-27T19:22:36.682Z,3.16
2022-12-27T19:25:07.016Z,3.18
2022-12-27T19:27:34.108Z,3.19
2022-12-27T19:30:01.184Z,3.15
2022-12-27T19:32:32.232Z,3.16
2022-12-27T19:35:01.527Z,3.12
2022-12-27T19:37:30.038Z,3.12
2022-12-27T19:39:57.684Z,3.14
2022-12-27T19:42:33.168Z,3.19
2022-12-27T19:45:00.251Z,3.20
2022-12-27T19:47:27.445Z,3.20
2022-12-27T19:49:54.489Z,3.20
2022-12-27T19:52:25.019Z,3.21
2022-12-27T19:54:58.723Z,3.22
2022-12-27T19:57:25.818Z,3.21
2022-12-27T19:59:52.971Z,3.21
2022-12-27T20:02:21.354Z,3.18
2022-12-27T20:04:48.757Z,3.22
2022-12-27T20:07:21.660Z,3.20
2022-12-27T20:09:49.408Z,3.17
2022-12-27T20:12:16.921Z,3.12
2022-12-27T20:14:44.050Z,3.08
2022-12-27T20:17:11.150Z,3.04
2022-12-27T20:19:38.184Z,3.01
2022-12-27T20:22:05.989Z,3.00
2022-12-27T20:24:35.078Z,3.02
2022-12-27T20:27:02.599Z,2.96
2022-12-27T20:29:31.954Z,2.94
2022-12-27T20:31:59.576Z,2.92
2022-12-27T20:34:26.815Z,2.88
2022-12-27T20:36:55.368Z,2.84
2022-12-27T20:39:22.951Z,2.79
2022-12-27T20:41:49.974Z,2.78
2022-12-27T20:44:17.094Z,2.77
2022-12-27T20:46:44.185Z,2.78
2022-12-27T20:49:11.233Z,2.79
2022-12-27T20:51:38.403Z,2.80
2022-12-27T20:54:06.184Z,2.83
2022-12-27T20:56:35.254Z,2.79
2022-12-27T20:59:02.484Z,2.80
2022-12-27T21:01:29.639Z,2.83
2022-12-27T21:03:57.102Z,2.81
2022-12-27T21:06:27.157Z,2.73
2022-12-27T21:08:57.376Z,2.70
2022-12-27T21:11:28.472Z,2.70
2022-12-27T21:13:55.801Z,2.68
2022-12-27T21:16:25.375Z,2.70
2022-12-27T21:18:52.837Z,2.71
2022-12-27T21:21:24.611Z,2.75
2022-12-27T21:23:53.997Z,2.76
2022-12-27T21:26:23.579Z,2.77
2022-12-27T21:28:51.158Z,2.84
2022-12-27T21:31:18.352Z,2.79
2022-12-27T21:33:46.578Z,2.81
2022-12-27T21:36:19.104Z,2.81
2022-12-27T21:38:46.705Z,2.82
2022-12-27T21:41:18.897Z,2.84
2022-12-27T21:43:47.467Z,2.82
2022-12-27T21:46:26.953Z,2.84
2022-12-27T21:49:00.204Z,2.85
2022-12-27T21:51:28.163Z,2.86
2022-12-27T21:53:55.492Z,2.88
2022-12-27T21:56:23.297Z,2.87
2022-12-27T21:58:50.810Z,2.83
2022-12-27T22:01:21.995Z,2.79
2022-12-27T22:03:51.080Z,2.77
2022-12-27T22:06:23.204Z,2.77
2022-12-27T22:08:56.260Z,2.79
2022-12-27T22:11:24.132Z,2.76
2022-12-27T22:13:51.519Z,2.76
2022-12-27T22:16:23.538Z,2.77
2022-12-27T22:18:50.895Z,2.76
2022-12-27T22:21:20.200Z,2.75
2022-12-27T22:23:49.188Z,2.71
2022-12-27T22:26:22.057Z,2.71
2022-12-27T22:28:49.267Z,2.72
2022-12-27T22:31:18.536Z,2.71
2022-12-27T22:33:45.735Z,2.73
2022-12-27T22:36:18.250Z,2.76
2022-12-27T22:38:49.467Z,2.77
2022-12-27T22:41:19.266Z,2.75
2022-12-27T22:43:53.586Z,2.74
2022-12-27T22:46:21.340Z,2.73
2022-12-27T22:48:50.073Z,2.72
2022-12-27T22:51:22.877Z,2.74
2022-12-27T22:53:50.429Z,2.73
2022-12-27T22:56:20.833Z,2.73
2022-12-27T22:58:47.969Z,2.73
2022-12-27T23:01:16.668Z,2.72
2022-12-27T23:03:44.164Z,2.76
2022-12-27T23:06:12.423Z,2.81
2022-12-27T23:08:40.607Z,2.84
2022-12-27T23:11:15.430Z,2.87
2022-12-27T23:13:42.819Z,2.88
2022-12-27T23:16:10.242Z,2.90
2022-12-27T23:18:39.425Z,2.93
2022-12-27T23:21:20.851Z,2.92
2022-12-27T23:23:51.136Z,2.91
2022-12-27T23:26:21.055Z,2.91
2022-12-27T23:28:49.119Z,2.89
2022-12-27T23:31:16.661Z,2.90
2022-12-27T23:33:44.049Z,2.86
2022-12-27T23:36:11.883Z,2.86
2022-12-27T23:38:40.236Z,2.88
2022-12-27T23:41:14.853Z,2.90
2022-12-27T23:43:57.207Z,2.90
2022-12-27T23:46:27.341Z,2.90
2022-12-27T23:48:55.669Z,2.88
2022-12-27T23:51:22.973Z,2.86
2022-12-27T23:53:50.506Z,2.87
2022-12-27T23:56:20.108Z,2.90
2022-12-27T23:58:47.847Z,2.94
